Time;durP1;ratioP1;P1;durP2;ratioP2;P2;SDS_P1;SDS_P2;PMS_P1;PMS_P2;Temp;Humidity;BMP_temperature;BMP_pressure;BME280_temperature;BME280_humidity;BME280_pressure;Samples;Min_cycle;Max_cycle;Signal;HPM_P1;HPM_P2
2023/06/29 00:09:48;;;;;;;5.47;3.50;;;;;;;22.48;84.18;100772.22;21008364;28;20054;-79
2023/06/29 00:20:13;;;;;;;5.05;3.50;;;;;;;22.23;87.34;100769.44;20983823;28;20049;-79
2023/06/29 00:30:36;;;;;;;4.68;3.35;;;;;;;22.14;89.25;100764.34;20958054;28;20056;-79
2023/06/29 00:41:00;;;;;;;6.10;3.40;;;;;;;22.25;86.86;100750.56;20986875;28;20052;-78
2023/06/29 00:51:23;;;;;;;4.65;2.95;;;;;;;22.22;86.32;100742.59;21042916;28;20083;-80
2023/06/29 01:01:47;;;;;;;4.45;2.80;;;;;;;21.98;88.03;100743.38;20966691;28;20053;-78
2023/06/29 01:12:12;;;;;;;6.15;3.28;;;;;;;21.47;95.04;100744.88;20951532;28;20064;-79
2023/06/29 01:22:41;;;;;;;5.43;3.53;;;;;;;22.11;88.30;100745.66;20958003;28;20140;-78
2023/06/29 01:33:05;;;;;;;4.72;3.15;;;;;;;22.18;85.87;100744.53;20954064;28;20585;-79
2023/06/29 01:43:30;;;;;;;5.60;3.60;;;;;;;22.15;84.85;100746.41;20989855;28;20048;-79
2023/06/29 01:53:54;;;;;;;6.78;3.50;;;;;;;21.90;89.33;100748.09;20963835;28;20076;-79
2023/06/29 02:03:57;;;;;;;4.80;3.70;;;;;;;21.63;95.17;100757.88;20989050;28;20036;-79
2023/06/29 02:14:21;;;;;;;7.15;3.75;;;;;;;21.75;95.57;100749.44;20970487;28;20048;-79
2023/06/29 02:24:44;;;;;;;6.55;3.90;;;;;;;21.37;100.00;100751.47;20956717;28;20048;-79
2023/06/29 02:35:10;;;;;;;7.18;3.78;;;;;;;21.41;100.00;100734.31;20966239;28;20084;-79
2023/06/29 02:45:33;;;;;;;8.10;4.47;;;;;;;21.45;100.00;100744.06;20953982;28;20048;-79
2023/06/29 02:55:58;;;;;;;7.38;3.95;;;;;;;21.38;100.00;100745.16;20958913;28;20059;-79
2023/06/29 03:06:20;;;;;;;9.98;4.60;;;;;;;21.26;100.00;100752.69;20988620;28;20121;-79
2023/06/29 03:16:45;;;;;;;8.18;4.57;;;;;;;21.27;100.00;100749.94;20998712;28;20039;-79
2023/06/29 03:27:08;;;;;;;8.15;4.50;;;;;;;21.51;100.00;100745.69;20981655;28;20084;-79
2023/06/29 03:37:32;;;;;;;10.40;4.72;;;;;;;21.75;100.00;100754.81;20976292;28;20469;-79
2023/06/29 03:47:56;;;;;;;5.97;4.43;;;;;;;22.22;100.00;100759.63;20992211;28;20114;-79
2023/06/29 03:58:21;;;;;;;8.32;4.60;;;;;;;22.62;100.00;100760.97;20966237;28;20053;-79
2023/06/29 04:08:44;;;;;;;10.68;4.38;;;;;;;23.10;100.00;100760.25;20952302;28;20045;-79
2023/06/29 04:19:08;;;;;;;7.43;4.93;;;;;;;23.68;100.00;100759.00;20995254;28;20059;-80
2023/06/29 04:29:30;;;;;;;8.35;4.30;;;;;;;24.34;100.00;100776.16;20972377;28;20485;-77
2023/06/29 04:39:55;;;;;;;6.82;3.60;;;;;;;24.98;100.00;100768.94;20978571;28;20053;-77
2023/06/29 04:50:25;;;;;;;10.38;3.83;;;;;;;25.74;100.00;100776.31;20937937;28;20062;-80
2023/06/29 05:00:49;;;;;;;9.82;4.30;;;;;;;26.43;100.00;100782.03;20963945;28;20055;-78
2023/06/29 05:11:12;;;;;;;11.63;5.22;;;;;;;27.08;100.00;100804.94;20972129;28;20155;-78
2023/06/29 05:21:36;;;;;;;8.50;4.70;;;;;;;27.85;100.00;100806.19;20966941;28;20044;-78
2023/06/29 05:31:59;;;;;;;8.93;4.68;;;;;;;28.58;100.00;100817.47;20965081;28;20601;-78
2023/06/29 05:42:23;;;;;;;12.23;4.55;;;;;;;29.30;100.00;100818.53;20963660;28;20402;-79
2023/06/29 05:52:46;;;;;;;9.70;4.68;;;;;;;29.78;100.00;100829.22;20966352;28;20072;-78
2023/06/29 06:03:11;;;;;;;11.50;3.95;;;;;;;30.46;100.00;100824.78;20988191;28;20047;-79
2023/06/29 06:13:33;;;;;;;10.38;4.88;;;;;;;31.07;91.27;100820.72;20941072;28;20063;-79
2023/06/29 06:23:57;;;;;;;9.13;4.07;;;;;;;31.89;78.82;100814.94;20972457;28;20060;-78
2023/06/29 06:34:20;;;;;;;10.82;5.28;;;;;;;32.51;71.50;100826.72;20950085;28;20094;-79
2023/06/29 06:44:53;;;;;;;10.25;4.00;;;;;;;33.11;64.65;100823.94;20944255;28;20079;-79
2023/06/29 06:55:16;;;;;;;9.48;3.95;;;;;;;33.15;59.10;100827.31;20961621;28;20044;-80
2023/06/29 07:05:40;;;;;;;8.68;4.00;;;;;;;33.32;59.33;100834.25;20963491;28;20040;-80
2023/06/29 07:16:03;;;;;;;10.40;4.35;;;;;;;33.35;60.39;100832.13;20943805;28;20055;-79
2023/06/29 07:26:29;;;;;;;9.90;4.20;;;;;;;33.37;61.19;100837.50;21001419;28;20176;-81
2023/06/29 07:36:47;;;;;;;12.98;4.90;;;;;;;33.44;58.61;100828.69;20977394;28;20060;-80
2023/06/29 07:47:12;;;;;;;9.38;4.22;;;;;;;33.63;60.26;100826.22;20991865;28;20431;-80
2023/06/29 07:57:35;;;;;;;10.48;4.28;;;;;;;33.62;59.94;100829.97;20990391;28;20044;-80
2023/06/29 08:08:00;;;;;;;8.02;3.75;;;;;;;33.73;59.84;100840.13;20931419;28;20052;-80
2023/06/29 08:18:23;;;;;;;13.97;4.23;;;;;;;33.77;56.02;100841.59;20975453;28;20052;-80
2023/06/29 08:28:49;;;;;;;9.20;4.20;;;;;;;33.97;57.83;100848.22;20823476;28;20060;-81
2023/06/29 08:39:11;;;;;;;13.27;4.70;;;;;;;34.13;59.15;100845.13;20747251;28;20045;-80
2023/06/29 08:49:36;;;;;;;10.27;4.65;;;;;;;33.84;58.56;100847.47;20817538;28;20406;-81
2023/06/29 08:59:59;;;;;;;9.98;3.78;;;;;;;33.98;59.20;100839.00;20753347;28;20497;-80
2023/06/29 09:10:25;;;;;;;7.25;4.03;;;;;;;34.30;55.61;100841.88;20803621;28;20099;-81
2023/06/29 09:20:50;;;;;;;12.82;4.70;;;;;;;34.69;54.86;100843.19;20863495;28;20245;-81
2023/06/29 09:31:15;;;;;;;11.27;4.33;;;;;;;35.09;49.94;100854.44;20979932;28;20045;-80
2023/06/29 09:41:46;;;;;;;12.27;4.73;;;;;;;35.50;48.50;100843.53;20951959;28;20048;-80
2023/06/29 09:52:11;;;;;;;11.57;4.82;;;;;;;36.00;44.08;100831.81;20927219;28;20293;-80
2023/06/29 10:02:33;;;;;;;8.85;4.75;;;;;;;36.22;43.18;100829.78;20984187;28;20436;-80
2023/06/29 10:12:59;;;;;;;7.63;4.05;;;;;;;36.09;42.23;100829.13;20971946;28;20443;-80
2023/06/29 10:23:24;;;;;;;14.32;4.50;;;;;;;36.05;41.97;100837.75;20964294;28;20048;-80
2023/06/29 10:33:50;;;;;;;10.25;5.10;;;;;;;36.18;42.62;100831.03;20961219;28;20060;-81
2023/06/29 10:44:13;;;;;;;12.27;5.47;;;;;;;35.86;44.12;100844.03;20966364;28;20068;-81
2023/06/29 10:54:38;;;;;;;10.57;5.25;;;;;;;35.44;48.22;100830.31;20952043;28;20079;-81
2023/06/29 11:05:02;;;;;;;10.48;4.70;;;;;;;35.86;47.07;100828.41;20954940;28;20131;-82
2023/06/29 11:15:28;;;;;;;11.80;4.03;;;;;;;35.81;46.21;100827.97;20931792;28;20155;-82
2023/06/29 11:25:51;;;;;;;10.02;4.25;;;;;;;35.50;50.00;100832.53;20939142;28;20161;-83
2023/06/29 11:36:27;;;;;;;9.63;4.80;;;;;;;35.25;50.61;100824.66;20895528;28;20057;-82
2023/06/29 11:46:33;;;;;;;10.32;4.63;;;;;;;35.12;51.10;100830.31;20971996;28;20446;-81
2023/06/29 11:56:58;;;;;;;11.65;5.53;;;;;;;35.01;52.38;100835.00;20948138;28;20059;-81
2023/06/29 12:07:36;;;;;;;12.73;4.78;;;;;;;34.96;50.18;100826.28;20962698;28;20059;-85
2023/06/29 12:18:08;;;;;;;12.45;4.47;;;;;;;35.24;48.63;100817.47;20975664;28;20052;-81
2023/06/29 12:28:32;;;;;;;11.73;4.85;;;;;;;35.45;45.71;100826.53;20913492;28;20176;-82
2023/06/29 12:38:57;;;;;;;11.65;4.25;;;;;;;35.96;44.78;100822.97;20879220;28;20580;-81
2023/06/29 12:49:20;;;;;;;11.70;5.00;;;;;;;36.28;43.54;100826.47;20947411;28;20129;-83
2023/06/29 12:59:44;;;;;;;10.00;4.57;;;;;;;36.47;44.57;100811.03;20968145;28;20040;-82
2023/06/29 13:10:08;;;;;;;11.68;4.35;;;;;;;36.26;44.89;100820.22;20979115;28;20037;-81
2023/06/29 13:20:32;;;;;;;14.75;5.22;;;;;;;36.14;46.39;100810.31;20967292;28;20476;-81
2023/06/29 13:30:55;;;;;;;12.50;4.82;;;;;;;35.83;46.92;100816.84;20978442;28;20055;-82
2023/06/29 13:41:35;;;;;;;10.55;4.28;;;;;;;35.06;52.72;100814.38;20961819;28;20086;-82
2023/06/29 13:51:51;;;;;;;12.50;4.60;;;;;;;34.99;51.15;100815.03;20980987;28;20147;-80
2023/06/29 14:02:15;;;;;;;13.48;5.32;;;;;;;35.11;48.69;100803.00;20958679;28;20060;-81
2023/06/29 14:12:37;;;;;;;12.27;5.10;;;;;;;35.38;47.94;100791.53;20964639;28;20044;-81
2023/06/29 14:23:01;;;;;;;10.70;4.82;;;;;;;34.98;50.11;100784.00;20945525;28;20597;-81
2023/06/29 14:33:24;;;;;;;11.52;4.97;;;;;;;35.33;48.42;100780.94;20979275;28;20048;-81
2023/06/29 14:43:48;;;;;;;12.60;4.97;;;;;;;35.11;47.95;100767.31;20975954;28;20048;-84
2023/06/29 14:54:11;;;;;;;9.40;4.63;;;;;;;35.04;51.19;100768.84;20964876;28;20052;-83
2023/06/29 15:04:36;;;;;;;15.63;5.82;;;;;;;34.77;47.69;100772.97;21010251;28;20143;-83
2023/06/29 15:15:01;;;;;;;11.07;4.50;;;;;;;34.28;45.45;100770.72;20945659;28;20052;-84
2023/06/29 15:25:25;;;;;;;10.37;4.53;;;;;;;33.68;46.47;100778.41;20988304;28;20297;-83
2023/06/29 15:35:47;;;;;;;12.60;5.15;;;;;;;33.14;51.57;100776.31;21003247;28;20051;-82
2023/06/29 15:46:14;;;;;;;11.40;4.57;;;;;;;32.25;52.98;100763.06;20999861;28;20102;-82
2023/06/29 15:56:37;;;;;;;10.57;4.20;;;;;;;31.79;50.39;100778.34;20972281;28;20515;-82
2023/06/29 16:07:02;;;;;;;10.77;5.28;;;;;;;31.34;52.73;100777.00;21003351;28;20401;-81
2023/06/29 16:17:24;;;;;;;13.60;5.32;;;;;;;30.88;58.92;100791.97;20944540;28;20044;-81
2023/06/29 16:27:48;;;;;;;16.25;6.18;;;;;;;30.39;76.58;100799.78;20980666;28;20040;-82
2023/06/29 16:38:11;;;;;;;12.50;6.68;;;;;;;30.05;85.35;100806.59;20957251;28;20048;-82
2023/06/29 16:48:36;;;;;;;14.98;6.63;;;;;;;29.70;96.21;100816.97;20963484;28;20487;-82
2023/06/29 16:58:58;;;;;;;15.55;6.60;;;;;;;29.37;100.00;100834.50;20977236;28;20810;-80
2023/06/29 17:09:23;;;;;;;14.30;8.10;;;;;;;28.87;100.00;100854.72;20969863;28;20629;-84
2023/06/29 17:19:48;;;;;;;18.40;8.38;;;;;;;28.30;100.00;100851.63;20998049;28;20055;-84
2023/06/29 17:30:14;;;;;;;16.15;8.90;;;;;;;27.99;100.00;100851.56;20955756;28;20048;-84
2023/06/29 17:40:37;;;;;;;19.95;8.75;;;;;;;27.73;100.00;100847.56;20983613;28;20556;-83
2023/06/29 17:51:13;;;;;;;19.08;8.25;;;;;;;27.32;100.00;100857.84;20970843;28;20045;-84
2023/06/29 18:01:35;;;;;;;18.17;8.15;;;;;;;27.24;100.00;100865.53;20996832;28;20056;-81
2023/06/29 18:12:00;;;;;;;16.73;9.07;;;;;;;27.18;100.00;100879.38;20976649;28;20040;-83
2023/06/29 18:22:22;;;;;;;21.45;8.50;;;;;;;27.11;100.00;100886.94;20972986;28;20102;-82
2023/06/29 18:32:46;;;;;;;17.90;9.45;;;;;;;26.96;100.00;100904.88;20979273;28;20048;-80
2023/06/29 18:43:09;;;;;;;19.50;9.32;;;;;;;26.68;100.00;100907.16;20977066;28;20159;-81
2023/06/29 18:53:33;;;;;;;18.98;11.05;;;;;;;26.68;100.00;100907.16;20947946;28;20077;-80
2023/06/29 19:03:56;;;;;;;21.92;10.32;;;;;;;26.50;100.00;100924.31;21003547;28;20090;-81
2023/06/29 19:14:20;;;;;;;22.85;9.73;;;;;;;26.44;100.00;100941.72;20981479;28;20044;-80
2023/06/29 19:24:43;;;;;;;20.00;10.13;;;;;;;26.29;100.00;100946.97;20990967;28;20377;-81
2023/06/29 19:35:09;;;;;;;21.95;11.15;;;;;;;26.26;100.00;100952.50;20965394;28;20060;-80
2023/06/29 19:45:31;;;;;;;25.55;12.25;;;;;;;26.08;100.00;100952.38;20988159;28;20602;-79
2023/06/29 19:55:55;;;;;;;20.00;9.75;;;;;;;26.04;100.00;100961.59;20980138;28;20106;-80
2023/06/29 20:06:18;;;;;;;18.63;8.07;;;;;;;25.89;100.00;100972.22;20983467;28;20496;-80
2023/06/29 20:16:43;;;;;;;22.23;9.80;;;;;;;25.86;100.00;100970.56;20972440;28;20501;-80
2023/06/29 20:27:06;;;;;;;18.85;9.68;;;;;;;25.71;100.00;100973.91;20967039;28;20102;-80
2023/06/29 20:37:32;;;;;;;20.15;9.88;;;;;;;25.68;100.00;100965.91;20957503;28;20509;-80
2023/06/29 20:47:51;;;;;;;21.92;10.27;;;;;;;25.57;100.00;100958.28;20980651;28;20047;-79
2023/06/29 20:58:15;;;;;;;19.35;10.82;;;;;;;25.48;100.00;100947.81;20974797;28;20060;-78
2023/06/29 21:08:44;;;;;;;18.58;10.73;;;;;;;25.30;100.00;100949.50;20958577;28;20106;-78
2023/06/29 21:19:11;;;;;;;18.15;11.15;;;;;;;25.14;100.00;100942.97;20962894;28;20511;-80
2023/06/29 21:29:36;;;;;;;20.60;11.25;;;;;;;24.84;100.00;100945.06;20973413;28;20036;-79
2023/06/29 21:40:00;;;;;;;21.95;11.80;;;;;;;24.82;100.00;100940.66;20969325;28;20048;-80
2023/06/29 21:50:23;;;;;;;20.05;11.05;;;;;;;24.74;100.00;100948.22;20981240;28;20057;-79
2023/06/29 22:00:47;;;;;;;17.25;11.07;;;;;;;24.55;100.00;100939.94;20989041;28;20051;-79
2023/06/29 22:11:09;;;;;;;15.20;10.20;;;;;;;24.60;100.00;100928.03;20980917;28;20447;-79
2023/06/29 22:21:33;;;;;;;16.25;11.57;;;;;;;24.10;100.00;100924.53;20985260;28;20057;-79
2023/06/29 22:31:56;;;;;;;18.70;11.30;;;;;;;23.99;100.00;100925.88;20984398;28;20333;-79
2023/06/29 22:42:20;;;;;;;19.42;10.77;;;;;;;23.95;100.00;100925.13;21001101;28;20628;-79
2023/06/29 22:52:43;;;;;;;18.95;11.18;;;;;;;24.10;100.00;100923.66;20977574;28;20058;-79
2023/06/29 23:03:08;;;;;;;18.27;11.05;;;;;;;24.18;100.00;100922.44;20954817;28;20041;-79
2023/06/29 23:13:38;;;;;;;17.02;9.35;;;;;;;24.18;100.00;100925.16;20957926;28;20045;-77
2023/06/29 23:24:03;;;;;;;18.35;11.30;;;;;;;24.07;100.00;100915.69;20949053;28;20045;-78
2023/06/29 23:34:25;;;;;;;20.40;10.95;;;;;;;24.16;100.00;100910.81;20979747;28;20101;-78
2023/06/29 23:44:52;;;;;;;20.63;9.60;;;;;;;24.05;100.00;100906.78;20943210;28;20047;-78
2023/06/29 23:55:14;;;;;;;20.55;10.52;;;;;;;24.18;100.00;100905.38;20980575;28;20044;-79
